EDVE 200020Z AUTO 27005KT 9999 // BKN013/// 16/15 Q1020 EDVE 192350Z AUTO 28005KT 9999 // NCD 15/14 Q1020 EDVE 192320Z AUTO 27006KT 9999 // FEW064/// 16/14 Q1020 EDVE 192250Z AUTO 26008KT 9999 // SCT068/// 16/15 Q1020 EDVE 192220Z AUTO 26008KT 9999 // FEW073/// 17/15 Q1019 EDVE 192150Z AUTO 26008KT 9999 // NCD 17/15 Q1019 EDVE 192120Z AUTO 24008KT 9999 // NCD 18/15 Q1019 EDVE 192050Z AUTO 24006KT 9999 // NCD 18/15 Q1018 EDVE 192020Z AUTO 23007KT 9999 // FEW250/// 18/15 Q1018 EDVE 191950Z AUTO 23004KT 9999 // SCT240/// 18/16 Q1018 EDVE 191920Z AUTO 19003KT 160V230 9999 // BKN210/// BKN240/// 17/16 Q1018 EDVE 191850Z AUTO VRB02KT 9999 // FEW130/// BKN190/// 17/16 Q1018 EDVE 191820Z 30004KT 280V340 CAVOK 18/16 Q1018 EDVE 191720Z 28009KT CAVOK 18/15 Q1020 EDVE 191650Z 31013KT 9999 VCTS BKN060CB 19/15 Q1019 EDVE 191620Z 26009KT 9999 VCTS FEW060CB 27/10 Q1017 EDVE 191550Z 26011KT CAVOK 28/10 Q1016 EDVE 191520Z 19006KT 140V260 CAVOK 30/09 Q1016 EDVE 191450Z 14005KT 100V180 CAVOK 29/10 Q1016 EDVE 191420Z 22005KT 180V270 CAVOK 29/09 Q1016 EDVE 191350Z 18004KT 120V250 CAVOK 29/10 Q1017 EDVE 191320Z VRB08KT CAVOK 29/09 Q1017 EDVE 191250Z 18007KT 110V270 CAVOK 30/10 Q1017 EDVE 191220Z 15010KT 110V190 CAVOK 29/10 Q1017 EDVE 191150Z 15008KT 110V190 CAVOK 28/11 Q1018 EDVE 191120Z 15008KT 120V190 CAVOK 28/12 Q1018 EDVE 191050Z 14009KT CAVOK 27/12 Q1019 EDVE 191020Z 16007KT 130V200 CAVOK 27/11 Q1019 EDVE 190950Z 14007KT 110V170 CAVOK 26/12 Q1020 EDVE 190920Z 17007KT 130V230 CAVOK 26/12 Q1020 EDVE 190850Z 20007KT 150V230 CAVOK 25/12 Q1020 EDVE 190820Z 22006KT 180V250 CAVOK 25/12 Q1020 EDVE 190750Z 20007KT 180V240 CAVOK 25/12 Q1020 EDVE 190720Z 19007KT CAVOK 23/12 Q1020 EDVE 190650Z 18005KT 140V220 CAVOK 22/13 Q1020 EDVE 190620Z 16003KT 120V200 CAVOK 21/14 Q1020 EDVE 190550Z 11004KT CAVOK 19/14 Q1020 EDVE 190520Z 09003KT CAVOK 17/13 Q1020 EDVE 190450Z 11004KT CAVOK 16/13 Q1020 EDVE 190420Z 11004KT CAVOK 14/12 Q1020 EDVE 190350Z 10004KT CAVOK 14/12 Q1020 EDVE 190320Z AUTO 09004KT 9999 // FEW240/// 15/12 Q1020 EDVE 190250Z AUTO 11004KT 9999 // SCT240/// 15/12 Q1020 EDVE 190220Z AUTO 10004KT 9999 // NCD 15/12 Q1020 EDVE 190150Z AUTO 11005KT 9999 // NCD 15/12 Q1020 EDVE 190120Z AUTO 11005KT 9999 // NCD 17/13 Q1020 EDVE 190050Z AUTO 13005KT 9999 // NCD 17/12 Q1020 EDVE 190020Z AUTO 13005KT 9999 // FEW240/// 18/12 Q1021 EDVE 182350Z AUTO 14006KT 9999 // SCT240/// 18/13 Q1021 EDVE 182320Z AUTO 13005KT 9999 // NCD 16/13 Q1021 EDVE 182250Z AUTO 11005KT 9999 // NCD 16/13 Q1021 EDVE 182220Z AUTO 12005KT 9999 // NCD 16/13 Q1021 EDVE 182150Z AUTO 11004KT 9999 // NCD 17/13 Q1021 EDVE 182120Z AUTO 12004KT 9999 // NCD 17/14 Q1021 EDVE 182050Z AUTO 12004KT 9999 // NCD 18/14 Q1021 EDVE 182020Z AUTO 11004KT 9999 // NCD 18/13 Q1021 EDVE 181950Z AUTO 10005KT 9999 // NCD 21/14 Q1021 EDVE 181920Z AUTO 11005KT 9999 // NCD 21/14 Q1021 EDVE 181850Z AUTO 12006KT 9999 // NCD 22/14 Q1021 EDVE 181820Z 14007KT CAVOK 24/14 Q1021 EDVE 181750Z 13008KT CAVOK 24/14 Q1021 EDVE 181720Z 13009KT CAVOK 26/13 Q1021 EDVE 181650Z 14008KT CAVOK 26/14 Q1021 EDVE 181620Z 13009KT 110V180 CAVOK 27/14 Q1021 EDVE 181550Z 15008KT 110V190 CAVOK 27/13 Q1021 EDVE 181520Z 15009KT 120V180 CAVOK 27/13 Q1021 EDVE 181450Z 15006KT 090V190 CAVOK 28/13 Q1021 EDVE 181420Z 14008KT 090V190 CAVOK 27/13 Q1022 EDVE 181350Z 16006KT 120V210 CAVOK 28/14 Q1022 EDVE 181320Z 15006KT 120V210 CAVOK 27/13 Q1022 EDVE 181250Z 15005KT 110V210 9999 BKN049 27/14 Q1022

METAR Messwerte "BRAUNSCHWEIG" EDVE

Zurück zur Übersicht

Ortsname
Ländercode / m ü. NN
Zeit Temperatur Taupunkt Rel.
Luftfeuchte
Luftdruck:
Altimeter
NN
Station
Wind in Beaufort
(Knoten)
Sichtweite
(Meter)
Wolken
(Meter über Grund)
Wettererscheinung
BRAUNSCHWEIG
DE 83
Fr 20.05. 02:20161594 %1020
1020
1010
W 2 (5)>= 10000Stark bewölkt (400) 
BRAUNSCHWEIG
DE 83
Fr 20.05. 01:50151494 %1020
1020
1010
W 2 (5)>= 10000  
BRAUNSCHWEIG
DE 83
Fr 20.05. 01:20161488 %1020
1020
1010
W 2 (6)>= 10000Leicht bewölkt (2000) 
BRAUNSCHWEIG
DE 83
Fr 20.05. 00:50161594 %1020
1020
1010
W 3 (8)>= 10000Wolkig (2100) 
BRAUNSCHWEIG
DE 83
Fr 20.05. 00:20171588 %1019
1019
1009
W 3 (8)>= 10000Leicht bewölkt (2200) 
BRAUNSCHWEIG
DE 83
Do 19.05. 23:50171588 %1019
1019
1009
W 3 (8)>= 10000  
BRAUNSCHWEIG
DE 83
Do 19.05. 23:20181583 %1019
1019
1009
WSW 3 (8)>= 10000  
BRAUNSCHWEIG
DE 83
Do 19.05. 22:50181583 %1018
1018
1008
WSW 2 (6)>= 10000  
BRAUNSCHWEIG
DE 83
Do 19.05. 22:20181583 %1018
1018
1008
SW 3 (7)>= 10000Leicht bewölkt (7600) 
BRAUNSCHWEIG
DE 83
Do 19.05. 21:50181688 %1018
1018
1008
SW 2 (4)>= 10000Wolkig (7300) 
BRAUNSCHWEIG
DE 83
Do 19.05. 21:20171694 %1018
1018
1008
S 2 (3)
SSO - SW
>= 10000Stark bewölkt (7300)
Stark bewölkt (6400)
 
BRAUNSCHWEIG
DE 83
Do 19.05. 20:50171694 %1018
1018
1008
Uml 1 (2)>= 10000Stark bewölkt (5800)
Leicht bewölkt (4000)
 
BRAUNSCHWEIG
DE 83
Do 19.05. 20:20181688 %1018
1018
1008
WNW 2 (4)
W - NNW
>= 10000Nicht signifikant 
BRAUNSCHWEIG
DE 83
Do 19.05. 19:20181583 %1020
1020
1010
W 3 (9)>= 10000Nicht signifikant 
BRAUNSCHWEIG
DE 83
Do 19.05. 18:50191578 %1019
1019
1009
NW 4 (13)>= 10000Stark bewölkt Cb (1800) 
BRAUNSCHWEIG
DE 83
Do 19.05. 18:20271034 %1017
1017
1007
W 3 (9)>= 10000Leicht bewölkt Cb (1800) 
BRAUNSCHWEIG
DE 83
Do 19.05. 17:50281032 %1016
1016
1006
W 4 (11)>= 10000Nicht signifikant 
BRAUNSCHWEIG
DE 83
Do 19.05. 17:2030927 %1016
1016
1006
S 2 (6)
SO - W
>= 10000Nicht signifikant 
BRAUNSCHWEIG
DE 83
Do 19.05. 16:50291031 %1016
1016
1006
SO 2 (5)
O - S
>= 10000Nicht signifikant 
BRAUNSCHWEIG
DE 83
Do 19.05. 16:2029929 %1016
1016
1006
SW 2 (5)
S - W
>= 10000Nicht signifikant 
BRAUNSCHWEIG
DE 83
Do 19.05. 15:50291031 %1017
1017
1007
S 2 (4)
OSO - WSW
>= 10000Nicht signifikant 
BRAUNSCHWEIG
DE 83
Do 19.05. 15:2029929 %1017
1017
1007
Uml 3 (8)>= 10000Nicht signifikant 
BRAUNSCHWEIG
DE 83
Do 19.05. 14:50301029 %1017
1017
1007
S 3 (7)
OSO - W
>= 10000Nicht signifikant 
BRAUNSCHWEIG
DE 83
Do 19.05. 14:20291031 %1017
1017
1007
SSO 3 (10)
OSO - S
>= 10000Nicht signifikant 
BRAUNSCHWEIG
DE 83
Do 19.05. 13:50281135 %1018
1018
1008
SSO 3 (8)
OSO - S
>= 10000Nicht signifikant 
BRAUNSCHWEIG
DE 83
Do 19.05. 13:20281237 %1018
1018
1008
SSO 3 (8)
OSO - S
>= 10000Nicht signifikant 
BRAUNSCHWEIG
DE 83
Do 19.05. 12:50271239 %1019
1019
1009
SO 3 (9)>= 10000Nicht signifikant 
BRAUNSCHWEIG
DE 83
Do 19.05. 12:20271137 %1019
1019
1009
SSO 3 (7)
SO - SSW
>= 10000Nicht signifikant 
BRAUNSCHWEIG
DE 83
Do 19.05. 11:50261242 %1020
1020
1010
SO 3 (7)
OSO - S
>= 10000Nicht signifikant 
BRAUNSCHWEIG
DE 83
Do 19.05. 11:20261242 %1020
1020
1010
S 3 (7)
SO - SW
>= 10000Nicht signifikant 
BRAUNSCHWEIG
DE 83
Do 19.05. 10:50251244 %1020
1020
1010
SSW 3 (7)
SSO - SW
>= 10000Nicht signifikant 
BRAUNSCHWEIG
DE 83
Do 19.05. 10:20251244 %1020
1020
1010
SW 2 (6)
S - WSW
>= 10000Nicht signifikant 
BRAUNSCHWEIG
DE 83
Do 19.05. 09:50251244 %1020
1020
1010
SSW 3 (7)
S - WSW
>= 10000Nicht signifikant 
BRAUNSCHWEIG
DE 83
Do 19.05. 09:20231250 %1020
1020
1010
S 3 (7)>= 10000Nicht signifikant 
BRAUNSCHWEIG
DE 83
Do 19.05. 08:50221357 %1020
1020
1010
S 2 (5)
SO - SW
>= 10000Nicht signifikant 
BRAUNSCHWEIG
DE 83
Do 19.05. 08:20211464 %1020
1020
1010
SSO 2 (3)
OSO - SSW
>= 10000Nicht signifikant 
BRAUNSCHWEIG
DE 83
Do 19.05. 07:50191473 %1020
1020
1010
OSO 2 (4)>= 10000Nicht signifikant 
BRAUNSCHWEIG
DE 83
Do 19.05. 07:20171377 %1020
1020
1010
O 2 (3)>= 10000Nicht signifikant 
BRAUNSCHWEIG
DE 83
Do 19.05. 06:50161382 %1020
1020
1010
OSO 2 (4)>= 10000Nicht signifikant 
BRAUNSCHWEIG
DE 83
Do 19.05. 06:20141288 %1020
1020
1010
OSO 2 (4)>= 10000Nicht signifikant 
BRAUNSCHWEIG
DE 83
Do 19.05. 05:50141288 %1020
1020
1010
O 2 (4)>= 10000Nicht signifikant 
BRAUNSCHWEIG
DE 83
Do 19.05. 05:20151282 %1020
1020
1010
O 2 (4)>= 10000Leicht bewölkt (7300) 
BRAUNSCHWEIG
DE 83
Do 19.05. 04:50151282 %1020
1020
1010
OSO 2 (4)>= 10000Wolkig (7300) 
BRAUNSCHWEIG
DE 83
Do 19.05. 04:20151282 %1020
1020
1010
O 2 (4)>= 10000  
BRAUNSCHWEIG
DE 83
Do 19.05. 03:50151282 %1020
1020
1010
OSO 2 (5)>= 10000  
BRAUNSCHWEIG
DE 83
Do 19.05. 03:20171377 %1020
1020
1010
OSO 2 (5)>= 10000  
BRAUNSCHWEIG
DE 83
Do 19.05. 02:50171272 %1020
1020
1010
SO 2 (5)>= 10000  
BRAUNSCHWEIG
DE 83
Do 19.05. 02:20181268 %1021
1021
1011
SO 2 (5)>= 10000Leicht bewölkt (7300) 
BRAUNSCHWEIG
DE 83
Do 19.05. 01:50181373 %1021
1021
1011
SO 2 (6)>= 10000Wolkig (7300) 
BRAUNSCHWEIG
DE 83
Do 19.05. 01:20161382 %1021
1021
1011
SO 2 (5)>= 10000  
BRAUNSCHWEIG
DE 83
Do 19.05. 00:50161382 %1021
1021
1011
OSO 2 (5)>= 10000  
BRAUNSCHWEIG
DE 83
Do 19.05. 00:20161382 %1021
1021
1011
OSO 2 (5)>= 10000  
BRAUNSCHWEIG
DE 83
Mi 18.05. 23:50171377 %1021
1021
1011
OSO 2 (4)>= 10000  
BRAUNSCHWEIG
DE 83
Mi 18.05. 23:20171482 %1021
1021
1011
OSO 2 (4)>= 10000  
BRAUNSCHWEIG
DE 83
Mi 18.05. 22:50181477 %1021
1021
1011
OSO 2 (4)>= 10000  
BRAUNSCHWEIG
DE 83
Mi 18.05. 22:20181373 %1021
1021
1011
OSO 2 (4)>= 10000  
BRAUNSCHWEIG
DE 83
Mi 18.05. 21:50211464 %1021
1021
1011
O 2 (5)>= 10000  
BRAUNSCHWEIG
DE 83
Mi 18.05. 21:20211464 %1021
1021
1011
OSO 2 (5)>= 10000  
BRAUNSCHWEIG
DE 83
Mi 18.05. 20:50221460 %1021
1021
1011
OSO 2 (6)>= 10000  
BRAUNSCHWEIG
DE 83
Mi 18.05. 20:20241454 %1021
1021
1011
SO 3 (7)>= 10000Nicht signifikant 
BRAUNSCHWEIG
DE 83
Mi 18.05. 19:50241454 %1021
1021
1011
SO 3 (8)>= 10000Nicht signifikant 
BRAUNSCHWEIG
DE 83
Mi 18.05. 19:20261345 %1021
1021
1011
SO 3 (9)>= 10000Nicht signifikant 
BRAUNSCHWEIG
DE 83
Mi 18.05. 18:50261448 %1021
1021
1011
SO 3 (8)>= 10000Nicht signifikant 
BRAUNSCHWEIG
DE 83
Mi 18.05. 18:20271445 %1021
1021
1011
SO 3 (9)
OSO - S
>= 10000Nicht signifikant 
BRAUNSCHWEIG
DE 83
Mi 18.05. 17:50271342 %1021
1021
1011
SSO 3 (8)
OSO - S
>= 10000Nicht signifikant 
BRAUNSCHWEIG
DE 83
Mi 18.05. 17:20271342 %1021
1021
1011
SSO 3 (9)
OSO - S
>= 10000Nicht signifikant 
BRAUNSCHWEIG
DE 83
Mi 18.05. 16:50281340 %1021
1021
1011
SSO 2 (6)
O - S
>= 10000Nicht signifikant 
BRAUNSCHWEIG
DE 83
Mi 18.05. 16:20271342 %1022
1022
1012
SO 3 (8)
O - S
>= 10000Nicht signifikant 
BRAUNSCHWEIG
DE 83
Mi 18.05. 15:50281442 %1022
1022
1012
SSO 2 (6)
OSO - SSW
>= 10000Nicht signifikant 
BRAUNSCHWEIG
DE 83
Mi 18.05. 15:20271342 %1022
1022
1012
SSO 2 (6)
OSO - SSW
>= 10000Nicht signifikant 
BRAUNSCHWEIG
DE 83
Mi 18.05. 14:50271445 %1022
1022
1012
SSO 2 (5)
OSO - SSW
>= 10000Stark bewölkt (1500) 

Altimeter: Einstellung am Altimeter (Höhenmesser), die Höhe 0 muss auf diesen Luftdruckwert zeigen, damit das Gerät die Stationshöhe richtig anzeigt.

NN: Luftdruck reduziert auf "Normal Null", auf Meereshöhe, dieser von der Temperatur abhängige Wert wird bisweilen unkorrekt einfach als "Luftdruck" bezeichnet. Eigentlich nur eine fiktive Größe, die es erlaubt, Stationen auf unterschiedlichen Höhen miteinander zu vergleichen.

Station: Realer Luftdruck an der Station.